Time;durP1;ratioP1;P1;durP2;ratioP2;P2;SDS_P1;SDS_P2;PMS_P1;PMS_P2;Temp;Humidity;BMP_temperature;BMP_pressure;BME280_temperature;BME280_humidity;BME280_pressure;Samples;Min_cycle;Max_cycle;Signal;HPM_P1;HPM_P2
2022/10/11 00:01:20;;;;;;;10.00;3.30;;;;;;;;;;5071920;28;20287;-47
2022/10/11 00:03:46;;;;;;;11.73;3.40;;;;;;;;;;5072313;28;20200;-47
2022/10/11 00:06:12;;;;;;;12.03;3.23;;;;;;;;;;5073061;28;20230;-47
2022/10/11 00:08:40;;;;;;;11.57;3.53;;;;;;;;;;5073981;28;20243;-51
2022/10/11 00:11:06;;;;;;;10.77;3.30;;;;;;;;;;5074011;28;20207;-47
2022/10/11 00:13:32;;;;;;;6.30;2.83;;;;;;;;;;5073795;28;20203;-47
2022/10/11 00:15:58;;;;;;;11.80;3.93;;;;;;;;;;5073654;28;20195;-47
2022/10/11 00:18:24;;;;;;;11.73;3.63;;;;;;;;;;5073563;28;20572;-46
2022/10/11 00:20:50;;;;;;;8.57;3.60;;;;;;;;;;5073709;28;20202;-46
2022/10/11 00:23:16;;;;;;;10.57;4.10;;;;;;;;;;5073735;28;20654;-47
2022/10/11 00:25:44;;;;;;;17.03;3.93;;;;;;;;;;5073451;28;20207;-47
2022/10/11 00:28:10;;;;;;;14.17;3.83;;;;;;;;;;5072961;28;20196;-47
2022/10/11 00:30:36;;;;;;;16.37;4.33;;;;;;;;;;5073545;28;20215;-46
2022/10/11 00:33:02;;;;;;;10.37;3.43;;;;;;;;;;5073169;28;20206;-47
2022/10/11 00:35:28;;;;;;;9.27;3.43;;;;;;;;;;5073595;28;20604;-46
2022/10/11 00:37:56;;;;;;;11.60;4.07;;;;;;;;;;5073002;28;20219;-46
2022/10/11 00:40:22;;;;;;;15.87;3.90;;;;;;;;;;5073361;28;20199;-47
2022/10/11 00:42:49;;;;;;;8.53;4.10;;;;;;;;;;5073340;28;20853;-47
2022/10/11 00:45:34;;;;;;;12.07;3.53;;;;;;;;;;5071032;28;20204;-47
2022/10/11 00:48:02;;;;;;;9.33;3.73;;;;;;;;;;5073241;28;20513;-46
2022/10/11 00:50:29;;;;;;;10.27;3.93;;;;;;;;;;5072953;28;20237;-46
2022/10/11 00:52:56;;;;;;;12.93;3.63;;;;;;;;;;5073232;28;20203;-47
2022/10/11 00:55:23;;;;;;;11.03;3.93;;;;;;;;;;5073226;28;20213;-46
2022/10/11 00:57:52;;;;;;;14.73;4.80;;;;;;;;;;5073021;28;20234;-47
2022/10/11 01:00:19;;;;;;;9.17;4.07;;;;;;;;;;5072887;28;20245;-46
2022/10/11 01:02:45;;;;;;;15.13;5.10;;;;;;;;;;5072393;28;20845;-48
2022/10/11 01:05:13;;;;;;;13.10;3.83;;;;;;;;;;5071654;28;20665;-46
2022/10/11 01:07:40;;;;;;;12.10;4.40;;;;;;;;;;5072363;28;20251;-47
2022/10/11 01:10:06;;;;;;;12.77;4.47;;;;;;;;;;5072626;28;20226;-46
2022/10/11 01:12:32;;;;;;;19.97;5.40;;;;;;;;;;5073031;28;20215;-46
2022/10/11 01:15:04;;;;;;;15.33;4.17;;;;;;;;;;5072697;28;20207;-48
2022/10/11 01:17:35;;;;;;;11.27;4.50;;;;;;;;;;5072252;28;20203;-46
2022/10/11 01:20:22;;;;;;;12.13;3.63;;;;;;;;;;5072568;28;20219;-47
2022/10/11 01:23:01;;;;;;;14.17;4.10;;;;;;;;;;5072642;28;20253;-46
2022/10/11 01:25:31;;;;;;;16.63;4.57;;;;;;;;;;5072494;28;20407;-47
2022/10/11 01:28:13;;;;;;;12.83;4.00;;;;;;;;;;5071038;28;20283;-46
2022/10/11 01:30:41;;;;;;;10.70;3.93;;;;;;;;;;5070864;28;20200;-47
2022/10/11 01:33:13;;;;;;;9.20;4.00;;;;;;;;;;5071773;28;20268;-47
2022/10/11 01:35:41;;;;;;;14.37;5.03;;;;;;;;;;5072380;28;20566;-46
2022/10/11 01:38:09;;;;;;;10.87;4.63;;;;;;;;;;5072267;28;20215;-47
2022/10/11 01:40:37;;;;;;;13.80;4.17;;;;;;;;;;5072198;28;20257;-46
2022/10/11 01:43:03;;;;;;;11.67;5.10;;;;;;;;;;5072215;28;20211;-46
2022/10/11 01:45:30;;;;;;;11.30;4.87;;;;;;;;;;5072043;28;20235;-46
2022/10/11 01:48:05;;;;;;;14.37;4.33;;;;;;;;;;5072165;28;20476;-46
2022/10/11 01:50:37;;;;;;;15.83;4.00;;;;;;;;;;5071873;28;20242;-46
2022/10/11 01:53:11;;;;;;;9.67;4.13;;;;;;;;;;5072069;28;20199;-46
2022/10/11 01:55:42;;;;;;;15.87;4.87;;;;;;;;;;5071824;28;20203;-46
2022/10/11 01:58:13;;;;;;;10.93;4.30;;;;;;;;;;5071924;28;20229;-46
2022/10/11 02:00:44;;;;;;;14.27;4.00;;;;;;;;;;5071749;28;20665;-46
2022/10/11 02:03:17;;;;;;;13.70;4.60;;;;;;;;;;5071959;28;20318;-46
2022/10/11 02:05:46;;;;;;;18.80;4.73;;;;;;;;;;5072061;28;20333;-46
2022/10/11 02:08:17;;;;;;;12.30;4.67;;;;;;;;;;5071862;28;20211;-48
2022/10/11 02:10:46;;;;;;;13.60;4.67;;;;;;;;;;5072034;28;20245;-47
2022/10/11 02:13:16;;;;;;;18.40;5.30;;;;;;;;;;5071702;28;20563;-46
2022/10/11 02:15:43;;;;;;;16.77;5.47;;;;;;;;;;5069814;28;20872;-46
2022/10/11 02:18:11;;;;;;;9.80;4.60;;;;;;;;;;5071472;28;20975;-46
2022/10/11 02:20:39;;;;;;;10.13;4.40;;;;;;;;;;5071271;28;20196;-47
2022/10/11 02:23:08;;;;;;;12.83;4.27;;;;;;;;;;5071662;28;20654;-46
2022/10/11 02:25:35;;;;;;;10.30;4.77;;;;;;;;;;5071283;28;20278;-46
2022/10/11 02:28:02;;;;;;;11.33;4.73;;;;;;;;;;5071436;28;20571;-45
2022/10/11 02:30:29;;;;;;;16.83;4.90;;;;;;;;;;5071297;28;20207;-46
2022/10/11 02:32:56;;;;;;;14.73;5.00;;;;;;;;;;5071487;28;20690;-46
2022/10/11 02:35:24;;;;;;;13.13;4.87;;;;;;;;;;5070678;28;21068;-45
2022/10/11 02:37:53;;;;;;;11.73;4.67;;;;;;;;;;5070602;28;20191;-45
2022/10/11 02:40:20;;;;;;;8.40;4.40;;;;;;;;;;5071413;28;20200;-45
2022/10/11 02:42:49;;;;;;;14.17;5.30;;;;;;;;;;5071408;28;20202;-46
2022/10/11 02:45:17;;;;;;;12.20;5.20;;;;;;;;;;5071206;28;20438;-46
2022/10/11 02:47:44;;;;;;;13.70;5.10;;;;;;;;;;5071329;28;20650;-46
2022/10/11 02:50:11;;;;;;;11.47;5.00;;;;;;;;;;5071166;28;20238;-46
2022/10/11 02:52:37;;;;;;;11.90;4.80;;;;;;;;;;5071282;28;20195;-46
2022/10/11 02:55:05;;;;;;;7.90;4.50;;;;;;;;;;5071456;28;20195;-46
2022/10/11 02:57:31;;;;;;;9.03;4.97;;;;;;;;;;5071244;28;20753;-46
2022/10/11 02:59:57;;;;;;;10.23;4.33;;;;;;;;;;5071070;28;20224;-46
2022/10/11 03:02:23;;;;;;;9.43;4.73;;;;;;;;;;5071069;28;20238;-46
2022/10/11 03:04:49;;;;;;;14.93;4.50;;;;;;;;;;5071136;28;20274;-46
2022/10/11 03:07:15;;;;;;;12.50;4.57;;;;;;;;;;5070816;28;20199;-46
2022/10/11 03:09:41;;;;;;;11.47;3.97;;;;;;;;;;5073198;28;20195;-46
2022/10/11 03:12:09;;;;;;;9.93;3.83;;;;;;;;;;5075001;28;20215;-46
2022/10/11 03:14:35;;;;;;;9.53;4.47;;;;;;;;;;5074839;28;20484;-46
2022/10/11 03:17:01;;;;;;;8.93;3.90;;;;;;;;;;5074660;28;20192;-46
2022/10/11 03:19:27;;;;;;;7.97;4.00;;;;;;;;;;5074564;28;20221;-46
2022/10/11 03:21:53;;;;;;;13.43;4.20;;;;;;;;;;5074571;28;20666;-46
2022/10/11 03:24:19;;;;;;;13.60;4.20;;;;;;;;;;5074779;28;20486;-46
2022/10/11 03:26:45;;;;;;;12.20;4.90;;;;;;;;;;5074480;28;20256;-46
2022/10/11 03:29:13;;;;;;;8.17;3.80;;;;;;;;;;5074967;28;20192;-46
2022/10/11 03:31:39;;;;;;;10.83;4.37;;;;;;;;;;5074677;28;20195;-46
2022/10/11 03:34:05;;;;;;;9.53;4.50;;;;;;;;;;5074528;28;20550;-46
2022/10/11 03:36:31;;;;;;;16.63;5.30;;;;;;;;;;5074585;28;20662;-46
2022/10/11 03:38:57;;;;;;;11.20;3.87;;;;;;;;;;5074539;28;20260;-45
2022/10/11 03:41:23;;;;;;;11.43;4.27;;;;;;;;;;5074212;28;20208;-46
2022/10/11 03:43:49;;;;;;;9.10;3.83;;;;;;;;;;5074122;28;20199;-46
2022/10/11 03:46:16;;;;;;;12.60;3.80;;;;;;;;;;5074465;28;20197;-46
2022/10/11 03:48:42;;;;;;;11.90;3.93;;;;;;;;;;5074333;28;20739;-46
2022/10/11 03:51:10;;;;;;;12.20;4.57;;;;;;;;;;5074048;28;20524;-46
2022/10/11 03:53:36;;;;;;;13.67;5.30;;;;;;;;;;5074168;28;20195;-46
2022/10/11 03:56:02;;;;;;;11.73;5.30;;;;;;;;;;5074307;28;20434;-46
2022/10/11 03:58:28;;;;;;;16.17;4.93;;;;;;;;;;5074033;28;20231;-46
2022/10/11 04:00:54;;;;;;;10.53;4.73;;;;;;;;;;5074142;28;20892;-46
2022/10/11 04:03:22;;;;;;;10.90;4.73;;;;;;;;;;5074073;28;20217;-46
2022/10/11 04:05:48;;;;;;;11.13;4.77;;;;;;;;;;5074161;28;20203;-46
2022/10/11 04:08:14;;;;;;;8.63;4.87;;;;;;;;;;5074252;28;20997;-46
2022/10/11 04:10:40;;;;;;;11.53;4.50;;;;;;;;;;5073715;28;20474;-46
2022/10/11 04:13:06;;;;;;;10.57;4.87;;;;;;;;;;5073793;28;20195;-46
2022/10/11 04:15:32;;;;;;;12.23;4.67;;;;;;;;;;5073471;28;20662;-46
2022/10/11 04:17:58;;;;;;;12.83;4.77;;;;;;;;;;5072629;28;20442;-46
2022/10/11 04:20:26;;;;;;;12.17;5.17;;;;;;;;;;5073740;28;20206;-46
2022/10/11 04:22:52;;;;;;;8.53;4.47;;;;;;;;;;5073296;28;20238;-46
2022/10/11 04:25:18;;;;;;;9.20;4.63;;;;;;;;;;5073743;28;20430;-46
2022/10/11 04:27:44;;;;;;;12.17;5.00;;;;;;;;;;5073567;28;20437;-46
2022/10/11 04:30:10;;;;;;;14.00;5.00;;;;;;;;;;5073583;28;20429;-46
2022/10/11 04:32:36;;;;;;;14.33;4.73;;;;;;;;;;5073421;28;20242;-47
2022/10/11 04:35:03;;;;;;;8.80;4.73;;;;;;;;;;5073559;28;20195;-46
2022/10/11 04:37:30;;;;;;;11.50;4.63;;;;;;;;;;5073368;28;20434;-47
2022/10/11 04:39:56;;;;;;;12.87;4.93;;;;;;;;;;5073566;28;20553;-46
2022/10/11 04:42:22;;;;;;;13.90;5.43;;;;;;;;;;5073313;28;20999;-46
2022/10/11 04:44:48;;;;;;;12.83;4.70;;;;;;;;;;5073457;28;20291;-47
2022/10/11 04:47:14;;;;;;;14.33;4.90;;;;;;;;;;5073361;28;20201;-46
2022/10/11 04:49:40;;;;;;;12.73;5.00;;;;;;;;;;5073133;28;20227;-46
2022/10/11 04:52:06;;;;;;;20.43;6.37;;;;;;;;;;5073138;28;20434;-46
2022/10/11 04:54:34;;;;;;;14.93;5.73;;;;;;;;;;5073065;28;20426;-46
2022/10/11 04:57:00;;;;;;;12.23;5.10;;;;;;;;;;5072976;28;20865;-46
2022/10/11 04:59:26;;;;;;;11.60;5.67;;;;;;;;;;5072815;28;20894;-46
2022/10/11 05:01:52;;;;;;;10.47;5.40;;;;;;;;;;5072846;28;20434;-46
2022/10/11 05:04:18;;;;;;;11.40;5.23;;;;;;;;;;5072659;28;20192;-46
2022/10/11 05:06:44;;;;;;;53.97;27.67;;;;;;;;;;5072931;28;20516;-47
2022/10/11 05:09:10;;;;;;;32.17;15.90;;;;;;;;;;5072824;28;20464;-46
2022/10/11 05:11:37;;;;;;;47.77;21.73;;;;;;;;;;5072387;28;20912;-46
2022/10/11 05:14:03;;;;;;;35.50;16.23;;;;;;;;;;5072446;28;20489;-46
2022/10/11 05:16:29;;;;;;;33.37;18.30;;;;;;;;;;5072026;28;20457;-46
2022/10/11 05:18:55;;;;;;;15.10;7.60;;;;;;;;;;5072515;28;20558;-46
2022/10/11 05:21:23;;;;;;;15.53;7.03;;;;;;;;;;5072341;28;20441;-46
2022/10/11 05:23:49;;;;;;;9.97;6.77;;;;;;;;;;5072485;28;20829;-46
2022/10/11 05:26:16;;;;;;;14.43;6.03;;;;;;;;;;5072031;28;20438;-46
2022/10/11 05:28:43;;;;;;;10.90;6.63;;;;;;;;;;5068961;28;20200;-46
2022/10/11 05:31:10;;;;;;;12.00;5.90;;;;;;;;;;5071702;28;20731;-46
2022/10/11 05:33:36;;;;;;;13.40;6.20;;;;;;;;;;5070994;28;20473;-46
2022/10/11 05:36:02;;;;;;;10.47;6.33;;;;;;;;;;5071626;28;20434;-46
2022/10/11 05:38:28;;;;;;;14.77;6.47;;;;;;;;;;5071545;28;20476;-46
2022/10/11 05:40:54;;;;;;;16.33;6.67;;;;;;;;;;5072325;28;20444;-46
2022/10/11 05:43:20;;;;;;;8.97;6.20;;;;;;;;;;5072128;28;20445;-46
2022/10/11 05:45:47;;;;;;;21.43;7.80;;;;;;;;;;5071685;28;20437;-46
2022/10/11 05:48:13;;;;;;;17.10;7.50;;;;;;;;;;5071840;28;20434;-46
2022/10/11 05:50:39;;;;;;;15.27;7.70;;;;;;;;;;5071767;28;20476;-46
2022/10/11 05:53:06;;;;;;;14.40;7.53;;;;;;;;;;5071892;28;20426;-46
2022/10/11 05:55:35;;;;;;;11.20;7.53;;;;;;;;;;5071836;28;20484;-47
2022/10/11 05:58:01;;;;;;;12.33;8.20;;;;;;;;;;5071424;28;20279;-46
2022/10/11 06:00:27;;;;;;;17.13;7.83;;;;;;;;;;5071395;28;20464;-46
2022/10/11 06:02:54;;;;;;;15.73;8.03;;;;;;;;;;5071869;28;20864;-47
2022/10/11 06:05:20;;;;;;;14.13;7.53;;;;;;;;;;5071513;28;20662;-47
2022/10/11 06:07:46;;;;;;;14.07;7.67;;;;;;;;;;5071540;28;20495;-47
2022/10/11 06:10:12;;;;;;;21.03;7.67;;;;;;;;;;5071631;28;20232;-47
2022/10/11 06:12:38;;;;;;;13.77;7.40;;;;;;;;;;5071264;28;20831;-47
2022/10/11 06:15:05;;;;;;;15.27;8.07;;;;;;;;;;5071437;28;20515;-47
2022/10/11 06:17:31;;;;;;;14.73;7.07;;;;;;;;;;5071505;28;20438;-47
2022/10/11 06:19:59;;;;;;;18.97;8.13;;;;;;;;;;5070909;28;20482;-47
2022/10/11 06:22:25;;;;;;;13.80;7.97;;;;;;;;;;5071059;28;20501;-47
2022/10/11 06:24:51;;;;;;;14.73;7.97;;;;;;;;;;5070720;28;20950;-47
2022/10/11 06:27:17;;;;;;;15.20;8.10;;;;;;;;;;5071617;28;20521;-47
2022/10/11 06:29:43;;;;;;;18.47;7.07;;;;;;;;;;5071221;28;20858;-47
2022/10/11 06:32:12;;;;;;;18.13;7.97;;;;;;;;;;5071284;28;20199;-47
2022/10/11 06:34:38;;;;;;;18.53;7.63;;;;;;;;;;5071260;28;20204;-47
2022/10/11 06:37:05;;;;;;;12.47;6.20;;;;;;;;;;5071077;28;20422;-47
2022/10/11 06:39:31;;;;;;;21.37;8.17;;;;;;;;;;5071139;28;20525;-47
2022/10/11 06:41:57;;;;;;;17.23;7.43;;;;;;;;;;5071289;28;20204;-48
2022/10/11 06:44:23;;;;;;;17.47;7.17;;;;;;;;;;5072502;28;20232;-47
2022/10/11 06:46:49;;;;;;;15.50;7.90;;;;;;;;;;5075511;28;20658;-47
2022/10/11 06:49:15;;;;;;;17.10;8.23;;;;;;;;;;5074835;28;20479;-47
2022/10/11 06:51:41;;;;;;;12.53;7.20;;;;;;;;;;5075354;28;20245;-46
2022/10/11 06:54:08;;;;;;;13.23;6.93;;;;;;;;;;5075451;28;20201;-46
2022/10/11 06:56:34;;;;;;;16.00;6.90;;;;;;;;;;5075139;28;20483;-46
2022/10/11 06:59:02;;;;;;;12.40;6.60;;;;;;;;;;5074657;28;20983;-47
2022/10/11 07:01:28;;;;;;;16.07;7.10;;;;;;;;;;5074962;28;20200;-46
2022/10/11 07:03:55;;;;;;;18.50;6.60;;;;;;;;;;5074580;28;20998;-46
2022/10/11 07:06:22;;;;;;;14.47;6.53;;;;;;;;;;5075005;28;20245;-46
2022/10/11 07:08:48;;;;;;;14.93;6.60;;;;;;;;;;5075070;28;20864;-46
2022/10/11 07:11:17;;;;;;;12.87;6.47;;;;;;;;;;5074799;28;20671;-46
2022/10/11 07:13:43;;;;;;;15.27;6.00;;;;;;;;;;5075026;28;21193;-46
2022/10/11 07:16:10;;;;;;;14.97;6.53;;;;;;;;;;5075000;28;20238;-47
2022/10/11 07:18:36;;;;;;;11.37;6.27;;;;;;;;;;5074927;28;20250;-46
2022/10/11 07:21:03;;;;;;;18.63;6.37;;;;;;;;;;5074999;28;20206;-46
2022/10/11 07:23:29;;;;;;;19.23;6.80;;;;;;;;;;5074773;28;20204;-46
2022/10/11 07:25:55;;;;;;;11.77;5.83;;;;;;;;;;5074834;28;20203;-47
2022/10/11 07:28:23;;;;;;;13.23;6.63;;;;;;;;;;5074736;28;20245;-46
2022/10/11 07:30:49;;;;;;;13.10;5.80;;;;;;;;;;5074398;28;20264;-46
2022/10/11 07:33:15;;;;;;;9.73;5.50;;;;;;;;;;5074605;28;20211;-47
2022/10/11 07:35:41;;;;;;;13.47;5.70;;;;;;;;;;5074319;28;20203;-47
2022/10/11 07:38:07;;;;;;;13.20;6.10;;;;;;;;;;5074610;28;20198;-60
2022/10/11 07:40:34;;;;;;;10.10;5.83;;;;;;;;;;5074414;28;20239;-46
2022/10/11 07:43:00;;;;;;;10.53;6.00;;;;;;;;;;5073012;28;20369;-53
2022/10/11 07:45:28;;;;;;;11.30;5.63;;;;;;;;;;5073813;28;20199;-47
2022/10/11 07:47:54;;;;;;;13.27;5.17;;;;;;;;;;5074035;28;20633;-49
2022/10/11 07:50:20;;;;;;;20.73;11.30;;;;;;;;;;5074042;28;20623;-50
2022/10/11 07:52:46;;;;;;;17.40;8.40;;;;;;;;;;5074600;28;20668;-49
2022/10/11 07:55:12;;;;;;;10.57;5.70;;;;;;;;;;5073586;28;20546;-49
2022/10/11 07:57:39;;;;;;;14.47;5.70;;;;;;;;;;5074001;28;20200;-48
2022/10/11 08:00:05;;;;;;;11.13;5.10;;;;;;;;;;5073811;28;20231;-48
2022/10/11 08:02:33;;;;;;;10.27;4.87;;;;;;;;;;5074233;28;20199;-51
2022/10/11 08:04:59;;;;;;;9.70;4.43;;;;;;;;;;5073905;28;20233;-49
2022/10/11 08:07:27;;;;;;;7.80;3.53;;;;;;;;;;5068120;28;20265;-49
2022/10/11 08:09:53;;;;;;;9.07;4.20;;;;;;;;;;5073534;28;20226;-49
2022/10/11 08:12:19;;;;;;;9.43;4.60;;;;;;;;;;5073193;28;20204;-49
2022/10/11 08:14:45;;;;;;;7.90;3.93;;;;;;;;;;5072742;28;20199;-49
2022/10/11 08:17:11;;;;;;;8.30;3.67;;;;;;;;;;5073217;28;20229;-48
2022/10/11 08:19:38;;;;;;;11.73;4.10;;;;;;;;;;5072791;28;20219;-48
2022/10/11 08:22:04;;;;;;;10.57;4.60;;;;;;;;;;5073199;28;20225;-49
2022/10/11 08:24:30;;;;;;;9.00;4.30;;;;;;;;;;5073641;28;20199;-48
2022/10/11 08:26:56;;;;;;;11.23;4.47;;;;;;;;;;5072762;28;20202;-48
2022/10/11 08:29:22;;;;;;;12.30;4.23;;;;;;;;;;5061288;28;20204;-48
2022/10/11 08:31:48;;;;;;;11.83;4.07;;;;;;;;;;5073425;28;20224;-48
2022/10/11 08:34:14;;;;;;;8.97;3.83;;;;;;;;;;5073428;28;20223;-48
2022/10/11 08:36:42;;;;;;;9.07;4.20;;;;;;;;;;5073069;28;20203;-49
2022/10/11 08:39:08;;;;;;;11.10;4.07;;;;;;;;;;5070769;28;20693;-50
2022/10/11 08:41:39;;;;;;;12.23;4.30;;;;;;;;;;5072896;28;20206;-50
2022/10/11 08:44:16;;;;;;;10.63;3.80;;;;;;;;;;5073082;28;20195;-50
2022/10/11 08:46:45;;;;;;;5.23;3.03;;;;;;;;;;5072929;28;20210;-51
2022/10/11 08:49:11;;;;;;;11.83;3.90;;;;;;;;;;5070762;28;20866;-47
2022/10/11 08:51:39;;;;;;;7.73;3.77;;;;;;;;;;5070959;28;20200;-48
2022/10/11 08:54:11;;;;;;;8.73;3.90;;;;;;;;;;5073021;28;20199;-48
2022/10/11 08:56:38;;;;;;;12.17;3.30;;;;;;;;;;5071228;28;20879;-48
2022/10/11 08:59:13;;;;;;;10.07;3.67;;;;;;;;;;5073042;28;20593;-47
2022/10/11 09:01:44;;;;;;;9.53;3.63;;;;;;;;;;5072654;28;20256;-48
2022/10/11 09:04:12;;;;;;;10.63;3.80;;;;;;;;;;5071548;28;20242;-48
2022/10/11 09:06:42;;;;;;;7.83;3.23;;;;;;;;;;5071430;28;20211;-48
2022/10/11 09:09:20;;;;;;;9.03;3.60;;;;;;;;;;5072590;28;20238;-49
2022/10/11 09:11:53;;;;;;;7.07;3.40;;;;;;;;;;5072588;28;20657;-50
2022/10/11 09:14:33;;;;;;;11.30;3.30;;;;;;;;;;5072097;28;20904;-50
2022/10/11 09:17:04;;;;;;;9.17;2.97;;;;;;;;;;5072135;28;20222;-52
2022/10/11 09:19:40;;;;;;;9.23;3.30;;;;;;;;;;5071807;28;20561;-49
2022/10/11 09:22:08;;;;;;;10.63;3.50;;;;;;;;;;5072044;28;20206;-49
2022/10/11 09:24:46;;;;;;;11.17;3.60;;;;;;;;;;5072243;28;20198;-50
2022/10/11 09:27:17;;;;;;;10.60;3.00;;;;;;;;;;5072327;28;20209;-50
2022/10/11 09:29:48;;;;;;;6.67;3.20;;;;;;;;;;5072531;28;20620;-49
2022/10/11 09:32:15;;;;;;;9.03;3.07;;;;;;;;;;5071005;28;20207;-51
2022/10/11 09:34:42;;;;;;;9.33;3.63;;;;;;;;;;5072519;28;20220;-50
2022/10/11 09:37:13;;;;;;;7.50;2.97;;;;;;;;;;5072522;28;20689;-50
2022/10/11 09:39:44;;;;;;;6.50;2.67;;;;;;;;;;5072455;28;20251;-51
2022/10/11 09:42:10;;;;;;;5.57;2.90;;;;;;;;;;5072567;28;20246;-50
2022/10/11 09:44:38;;;;;;;8.90;3.37;;;;;;;;;;5072234;28;20305;-51
2022/10/11 09:47:05;;;;;;;5.93;2.77;;;;;;;;;;5072587;28;20201;-51
2022/10/11 09:49:34;;;;;;;10.73;2.83;;;;;;;;;;5072131;28;20255;-51
2022/10/11 09:52:01;;;;;;;6.87;2.33;;;;;;;;;;5072690;28;20227;-51
2022/10/11 09:54:37;;;;;;;8.57;2.70;;;;;;;;;;5072218;28;20203;-51
2022/10/11 09:57:05;;;;;;;8.93;2.83;;;;;;;;;;5072306;28;20250;-51
2022/10/11 09:59:33;;;;;;;10.80;2.80;;;;;;;;;;5071925;28;20254;-50
2022/10/11 10:02:06;;;;;;;10.20;2.70;;;;;;;;;;5072168;28;20886;-51
2022/10/11 10:04:32;;;;;;;9.87;2.97;;;;;;;;;;5071951;28;20198;-51
2022/10/11 10:07:09;;;;;;;8.80;2.80;;;;;;;;;;5071965;28;20226;-51
2022/10/11 10:09:35;;;;;;;9.07;3.27;;;;;;;;;;5070361;28;20207;-53
2022/10/11 10:12:10;;;;;;;8.83;2.63;;;;;;;;;;5071960;28;20230;-51
2022/10/11 10:14:37;;;;;;;9.03;2.97;;;;;;;;;;5071860;28;20198;-51
2022/10/11 10:17:05;;;;;;;10.00;2.90;;;;;;;;;;5071464;28;20680;-51
2022/10/11 10:19:35;;;;;;;7.67;2.83;;;;;;;;;;5071365;28;20223;-47
2022/10/11 10:22:01;;;;;;;11.23;2.57;;;;;;;;;;5072040;28;20654;-46
2022/10/11 10:24:30;;;;;;;7.57;2.67;;;;;;;;;;5071827;28;20199;-47
2022/10/11 10:27:07;;;;;;;9.87;2.50;;;;;;;;;;5072037;28;20203;-47
2022/10/11 10:29:34;;;;;;;7.10;2.63;;;;;;;;;;5071647;28;20202;-46
2022/10/11 10:32:08;;;;;;;8.90;2.73;;;;;;;;;;5071968;28;20201;-46
2022/10/11 10:34:36;;;;;;;7.80;2.60;;;;;;;;;;5071809;28;20294;-46
2022/10/11 10:37:03;;;;;;;11.27;2.70;;;;;;;;;;5071866;28;20199;-46
2022/10/11 10:39:32;;;;;;;12.20;3.10;;;;;;;;;;5071789;28;20234;-47
2022/10/11 10:42:00;;;;;;;6.03;2.33;;;;;;;;;;5071738;28;20665;-46
2022/10/11 10:44:26;;;;;;;6.73;2.70;;;;;;;;;;5071708;28;20682;-46
2022/10/11 10:47:02;;;;;;;6.73;2.90;;;;;;;;;;5071507;28;20194;-47
2022/10/11 10:49:34;;;;;;;4.83;2.27;;;;;;;;;;5071336;28;20219;-47
2022/10/11 10:52:12;;;;;;;7.67;2.50;;;;;;;;;;5070022;28;20195;-47
2022/10/11 10:54:42;;;;;;;6.67;2.20;;;;;;;;;;5071512;28;20253;-46
2022/10/11 10:57:16;;;;;;;7.10;2.77;;;;;;;;;;5069854;28;20241;-46
2022/10/11 10:59:51;;;;;;;8.63;3.13;;;;;;;;;;5071330;28;20258;-47
2022/10/11 11:02:20;;;;;;;6.77;2.37;;;;;;;;;;5069996;28;20190;-47
2022/10/11 11:04:51;;;;;;;7.27;2.43;;;;;;;;;;5069534;28;20203;-46
2022/10/11 11:07:21;;;;;;;4.63;1.80;;;;;;;;;;5071353;28;20200;-47
2022/10/11 11:09:56;;;;;;;9.87;2.67;;;;;;;;;;5071110;28;20320;-47
2022/10/11 11:12:31;;;;;;;5.60;2.10;;;;;;;;;;5070913;28;20201;-47
2022/10/11 11:15:02;;;;;;;7.67;2.20;;;;;;;;;;5071373;28;20776;-46
2022/10/11 11:17:32;;;;;;;9.87;2.37;;;;;;;;;;5069728;28;20225;-47
2022/10/11 11:20:08;;;;;;;7.27;2.37;;;;;;;;;;5070875;28;20227;-47
2022/10/11 11:22:39;;;;;;;4.67;2.10;;;;;;;;;;5071275;28;20203;-48
2022/10/11 11:25:11;;;;;;;5.27;2.00;;;;;;;;;;5071589;28;20195;-48
2022/10/11 11:27:43;;;;;;;9.43;2.30;;;;;;;;;;5071414;28;20252;-48
2022/10/11 11:30:11;;;;;;;8.73;2.30;;;;;;;;;;5072322;28;20195;-46
2022/10/11 11:32:43;;;;;;;6.07;2.30;;;;;;;;;;5074936;28;20203;-48
2022/10/11 11:35:14;;;;;;;6.87;2.37;;;;;;;;;;5075068;28;20195;-47
2022/10/11 11:37:42;;;;;;;8.13;2.63;;;;;;;;;;5074435;28;20204;-55
2022/10/11 11:40:15;;;;;;;7.13;2.37;;;;;;;;;;5074509;28;20231;-48
2022/10/11 11:42:42;;;;;;;8.60;2.53;;;;;;;;;;5074851;28;20662;-47
2022/10/11 11:45:14;;;;;;;7.00;2.17;;;;;;;;;;5074733;28;20682;-47
2022/10/11 11:47:43;;;;;;;6.97;2.30;;;;;;;;;;5074601;28;20221;-47
2022/10/11 11:50:22;;;;;;;7.90;2.63;;;;;;;;;;5074410;28;20273;-48
2022/10/11 11:52:49;;;;;;;7.10;2.87;;;;;;;;;;5072389;28;20203;-48
2022/10/11 11:55:19;;;;;;;8.87;2.63;;;;;;;;;;5073492;28;20258;-48
2022/10/11 11:57:51;;;;;;;6.97;2.43;;;;;;;;;;5074414;28;20203;-47
2022/10/11 12:00:19;;;;;;;9.00;3.03;;;;;;;;;;5074693;28;20327;-47
2022/10/11 12:02:48;;;;;;;7.27;2.27;;;;;;;;;;5073915;28;20307;-47
2022/10/11 12:05:17;;;;;;;8.63;2.60;;;;;;;;;;5073672;28;20195;-48
2022/10/11 12:07:48;;;;;;;8.87;2.30;;;;;;;;;;5074004;28;20277;-48
2022/10/11 12:10:16;;;;;;;6.37;2.33;;;;;;;;;;5072439;28;20198;-47
2022/10/11 12:12:42;;;;;;;5.73;2.40;;;;;;;;;;5074284;28;20192;-47
2022/10/11 12:15:16;;;;;;;8.30;2.70;;;;;;;;;;5074266;28;20672;-55
2022/10/11 12:17:58;;;;;;;6.93;2.10;;;;;;;;;;5074263;28;20207;-47
2022/10/11 12:20:25;;;;;;;6.60;2.43;;;;;;;;;;5073740;28;20224;-47
2022/10/11 12:22:53;;;;;;;6.73;2.67;;;;;;;;;;5074192;28;20203;-47
2022/10/11 12:25:36;;;;;;;6.57;2.47;;;;;;;;;;5072366;28;20213;-46
2022/10/11 12:28:22;;;;;;;7.83;3.10;;;;;;;;;;5072289;28;20196;-47
2022/10/11 12:30:51;;;;;;;6.83;2.47;;;;;;;;;;5073780;28;20200;-48
2022/10/11 12:33:21;;;;;;;8.70;2.73;;;;;;;;;;5074141;28;20196;-48
2022/10/11 12:35:58;;;;;;;9.87;2.93;;;;;;;;;;5073828;28;20205;-49
2022/10/11 12:38:25;;;;;;;7.00;2.57;;;;;;;;;;5074221;28;20302;-47
2022/10/11 12:40:53;;;;;;;8.33;2.60;;;;;;;;;;5073229;28;20223;-48
2022/10/11 12:43:24;;;;;;;7.03;2.67;;;;;;;;;;5072785;28;20617;-46
2022/10/11 12:45:50;;;;;;;7.00;2.40;;;;;;;;;;5071992;28;20200;-48
2022/10/11 12:48:21;;;;;;;11.13;2.90;;;;;;;;;;5070929;28;20210;-48
2022/10/11 12:50:51;;;;;;;6.27;2.60;;;;;;;;;;5072812;28;20917;-46
2022/10/11 12:53:25;;;;;;;7.13;2.60;;;;;;;;;;5073612;28;20191;-47
2022/10/11 12:55:57;;;;;;;7.00;2.50;;;;;;;;;;5073706;28;20204;-47
2022/10/11 12:58:25;;;;;;;6.10;2.23;;;;;;;;;;5073545;28;20195;-48
2022/10/11 13:01:09;;;;;;;6.63;2.30;;;;;;;;;;5073341;28;20227;-48
2022/10/11 13:03:38;;;;;;;7.33;2.77;;;;;;;;;;5073042;28;20199;-48
2022/10/11 13:06:10;;;;;;;9.73;3.23;;;;;;;;;;5071321;28;20276;-48
2022/10/11 13:08:40;;;;;;;6.70;2.60;;;;;;;;;;5072621;28;20698;-48
2022/10/11 13:11:08;;;;;;;8.97;2.63;;;;;;;;;;5073498;28;20286;-48
2022/10/11 13:13:37;;;;;;;4.87;2.20;;;;;;;;;;5072565;28;20662;-48
2022/10/11 13:16:06;;;;;;;6.93;2.30;;;;;;;;;;5073128;28;20191;-47
2022/10/11 13:18:32;;;;;;;6.93;2.60;;;;;;;;;;5072998;28;20246;-48
2022/10/11 13:20:58;;;;;;;8.13;2.77;;;;;;;;;;5072562;28;20558;-47
2022/10/11 13:23:26;;;;;;;8.03;2.50;;;;;;;;;;5072481;28;20658;-48
2022/10/11 13:25:54;;;;;;;5.60;2.40;;;;;;;;;;5072808;28;20203;-48
2022/10/11 13:28:20;;;;;;;8.23;2.60;;;;;;;;;;5071089;28;20199;-48
2022/10/11 13:30:48;;;;;;;9.03;2.47;;;;;;;;;;5072771;28;20223;-48
2022/10/11 13:33:18;;;;;;;7.30;2.83;;;;;;;;;;5072679;28;20200;-48
2022/10/11 13:35:44;;;;;;;6.37;2.40;;;;;;;;;;5072441;28;20655;-48
2022/10/11 13:38:17;;;;;;;5.53;2.30;;;;;;;;;;5072579;28;20202;-48
2022/10/11 13:40:43;;;;;;;6.57;2.43;;;;;;;;;;5071195;28;20230;-47
2022/10/11 13:43:12;;;;;;;7.97;2.47;;;;;;;;;;5072500;28;20191;-48
2022/10/11 13:45:40;;;;;;;6.30;2.40;;;;;;;;;;5072236;28;20199;-48
2022/10/11 13:48:13;;;;;;;8.67;2.33;;;;;;;;;;5072112;28;20195;-48
2022/10/11 13:50:39;;;;;;;7.40;2.67;;;;;;;;;;5072044;28;20735;-47
2022/10/11 13:53:21;;;;;;;9.67;2.27;;;;;;;;;;5070178;28;20666;-47
2022/10/11 13:55:50;;;;;;;6.07;2.37;;;;;;;;;;5071334;28;20218;-47
2022/10/11 13:58:19;;;;;;;7.37;2.50;;;;;;;;;;5071279;28;20196;-46
2022/10/11 14:00:52;;;;;;;6.90;2.20;;;;;;;;;;5072175;28;20280;-46
2022/10/11 14:03:19;;;;;;;7.77;2.50;;;;;;;;;;5070168;28;20538;-46
2022/10/11 14:05:52;;;;;;;10.00;2.40;;;;;;;;;;5071964;28;20200;-46
2022/10/11 14:08:21;;;;;;;6.27;2.37;;;;;;;;;;5071571;28;20705;-46
2022/10/11 14:10:48;;;;;;;10.20;2.60;;;;;;;;;;5069239;28;20256;-46
2022/10/11 14:13:23;;;;;;;6.80;2.27;;;;;;;;;;5071686;28;20362;-46
2022/10/11 14:16:00;;;;;;;4.53;2.37;;;;;;;;;;5069650;28;20694;-46
2022/10/11 14:18:41;;;;;;;8.73;2.53;;;;;;;;;;5071928;28;20231;-45
2022/10/11 14:21:17;;;;;;;10.97;2.20;;;;;;;;;;5071831;28;20198;-46
2022/10/11 14:23:43;;;;;;;6.37;2.33;;;;;;;;;;5071022;28;20219;-46
2022/10/11 14:26:11;;;;;;;5.17;2.30;;;;;;;;;;5071478;28;20196;-46
2022/10/11 14:28:44;;;;;;;8.13;2.20;;;;;;;;;;5070898;28;20199;-48
2022/10/11 14:31:10;;;;;;;8.03;2.70;;;;;;;;;;5071675;28;20206;-45
2022/10/11 14:33:36;;;;;;;7.47;2.40;;;;;;;;;;5071567;28;20203;-47
2022/10/11 14:36:02;;;;;;;7.37;2.60;;;;;;;;;;5071135;28;20207;-47
2022/10/11 14:38:29;;;;;;;7.27;2.33;;;;;;;;;;5069849;28;20206;-46
2022/10/11 14:40:55;;;;;;;6.97;2.60;;;;;;;;;;5071742;28;20234;-46
2022/10/11 14:43:21;;;;;;;7.57;2.30;;;;;;;;;;5071448;28;20251;-46